sensor_id;sensor_type;location;lat;lon;timestamp;P1;durP1;ratioP1;P2;durP2;ratioP2
5754;SDS011;2902;42.130;24.732;2023-12-07T00:00:44;31.23;;;18.33;;
5754;SDS011;2902;42.130;24.732;2023-12-07T00:03:10;26.30;;;17.97;;
5754;SDS011;2902;42.130;24.732;2023-12-07T00:05:37;28.80;;;18.27;;
5754;SDS011;2902;42.130;24.732;2023-12-07T00:08:04;29.43;;;17.63;;
5754;SDS011;2902;42.130;24.732;2023-12-07T00:10:30;26.27;;;17.27;;
5754;SDS011;2902;42.130;24.732;2023-12-07T00:12:59;29.60;;;18.17;;
5754;SDS011;2902;42.130;24.732;2023-12-07T00:15:25;31.10;;;18.67;;
5754;SDS011;2902;42.130;24.732;2023-12-07T00:17:52;30.03;;;17.53;;
5754;SDS011;2902;42.130;24.732;2023-12-07T00:20:19;28.83;;;17.73;;
5754;SDS011;2902;42.130;24.732;2023-12-07T00:22:45;26.77;;;17.13;;
5754;SDS011;2902;42.130;24.732;2023-12-07T00:25:13;27.67;;;18.53;;
5754;SDS011;2902;42.130;24.732;2023-12-07T00:27:40;29.37;;;19.27;;
5754;SDS011;2902;42.130;24.732;2023-12-07T00:30:09;27.23;;;17.40;;
5754;SDS011;2902;42.130;24.732;2023-12-07T00:32:36;32.17;;;18.77;;
5754;SDS011;2902;42.130;24.732;2023-12-07T00:35:04;32.87;;;19.87;;
5754;SDS011;2902;42.130;24.732;2023-12-07T00:37:33;30.87;;;17.50;;
5754;SDS011;2902;42.130;24.732;2023-12-07T00:39:59;25.57;;;17.37;;
5754;SDS011;2902;42.130;24.732;2023-12-07T00:42:27;24.30;;;16.43;;
5754;SDS011;2902;42.130;24.732;2023-12-07T00:44:54;25.70;;;17.30;;
5754;SDS011;2902;42.130;24.732;2023-12-07T00:47:22;23.27;;;15.27;;
5754;SDS011;2902;42.130;24.732;2023-12-07T00:49:49;18.57;;;14.30;;
5754;SDS011;2902;42.130;24.732;2023-12-07T00:52:16;25.23;;;16.10;;
5754;SDS011;2902;42.130;24.732;2023-12-07T00:54:43;21.60;;;15.23;;
5754;SDS011;2902;42.130;24.732;2023-12-07T00:57:09;21.53;;;14.43;;
5754;SDS011;2902;42.130;24.732;2023-12-07T00:59:36;21.87;;;14.40;;
5754;SDS011;2902;42.130;24.732;2023-12-07T01:02:03;16.87;;;13.20;;
5754;SDS011;2902;42.130;24.732;2023-12-07T01:04:32;19.33;;;13.97;;
5754;SDS011;2902;42.130;24.732;2023-12-07T01:06:59;19.33;;;14.77;;
5754;SDS011;2902;42.130;24.732;2023-12-07T01:09:26;24.63;;;14.27;;
5754;SDS011;2902;42.130;24.732;2023-12-07T01:11:53;25.03;;;14.23;;
5754;SDS011;2902;42.130;24.732;2023-12-07T01:14:19;23.50;;;15.40;;
5754;SDS011;2902;42.130;24.732;2023-12-07T01:16:46;20.40;;;13.90;;
5754;SDS011;2902;42.130;24.732;2023-12-07T01:19:13;22.77;;;13.70;;
5754;SDS011;2902;42.130;24.732;2023-12-07T01:21:41;16.77;;;13.77;;
5754;SDS011;2902;42.130;24.732;2023-12-07T01:24:08;19.27;;;13.57;;
5754;SDS011;2902;42.130;24.732;2023-12-07T01:26:35;19.03;;;13.67;;
5754;SDS011;2902;42.130;24.732;2023-12-07T01:29:01;16.33;;;13.40;;
5754;SDS011;2902;42.130;24.732;2023-12-07T01:31:28;16.97;;;13.63;;
5754;SDS011;2902;42.130;24.732;2023-12-07T01:33:55;19.20;;;13.60;;
5754;SDS011;2902;42.130;24.732;2023-12-07T01:36:22;17.43;;;12.60;;
5754;SDS011;2902;42.130;24.732;2023-12-07T01:38:51;15.83;;;12.53;;
5754;SDS011;2902;42.130;24.732;2023-12-07T01:41:17;18.43;;;12.67;;
5754;SDS011;2902;42.130;24.732;2023-12-07T01:43:44;16.30;;;12.80;;
5754;SDS011;2902;42.130;24.732;2023-12-07T01:46:12;18.23;;;13.17;;
5754;SDS011;2902;42.130;24.732;2023-12-07T01:48:40;14.47;;;12.17;;
5754;SDS011;2902;42.130;24.732;2023-12-07T01:51:07;14.10;;;12.60;;
5754;SDS011;2902;42.130;24.732;2023-12-07T01:53:35;15.13;;;11.57;;
5754;SDS011;2902;42.130;24.732;2023-12-07T01:56:03;16.33;;;13.20;;
5754;SDS011;2902;42.130;24.732;2023-12-07T01:58:32;14.43;;;12.57;;
5754;SDS011;2902;42.130;24.732;2023-12-07T02:00:59;14.03;;;11.47;;
5754;SDS011;2902;42.130;24.732;2023-12-07T02:03:27;12.40;;;11.20;;
5754;SDS011;2902;42.130;24.732;2023-12-07T02:05:55;13.37;;;11.90;;
5754;SDS011;2902;42.130;24.732;2023-12-07T02:08:23;13.33;;;11.87;;
5754;SDS011;2902;42.130;24.732;2023-12-07T02:10:50;14.63;;;12.63;;
5754;SDS011;2902;42.130;24.732;2023-12-07T02:13:19;15.97;;;11.80;;
5754;SDS011;2902;42.130;24.732;2023-12-07T02:15:46;12.90;;;10.83;;
5754;SDS011;2902;42.130;24.732;2023-12-07T02:18:14;12.03;;;10.83;;
5754;SDS011;2902;42.130;24.732;2023-12-07T02:20:45;16.73;;;11.93;;
5754;SDS011;2902;42.130;24.732;2023-12-07T02:23:18;12.13;;;10.63;;
5754;SDS011;2902;42.130;24.732;2023-12-07T02:28:51;13.27;;;11.47;;
5754;SDS011;2902;42.130;24.732;2023-12-07T02:31:18;12.93;;;11.27;;
5754;SDS011;2902;42.130;24.732;2023-12-07T02:33:45;12.27;;;11.03;;
5754;SDS011;2902;42.130;24.732;2023-12-07T02:36:12;11.37;;;10.13;;
5754;SDS011;2902;42.130;24.732;2023-12-07T02:38:41;13.93;;;9.87;;
5754;SDS011;2902;42.130;24.732;2023-12-07T02:41:10;11.30;;;10.20;;
5754;SDS011;2902;42.130;24.732;2023-12-07T02:43:38;11.73;;;10.53;;
5754;SDS011;2902;42.130;24.732;2023-12-07T02:46:06;10.60;;;9.67;;
5754;SDS011;2902;42.130;24.732;2023-12-07T02:48:33;11.73;;;10.37;;
5754;SDS011;2902;42.130;24.732;2023-12-07T02:51:00;11.10;;;10.00;;
5754;SDS011;2902;42.130;24.732;2023-12-07T02:53:26;10.97;;;9.93;;
5754;SDS011;2902;42.130;24.732;2023-12-07T02:55:53;11.03;;;10.07;;
5754;SDS011;2902;42.130;24.732;2023-12-07T02:58:20;9.90;;;9.00;;
5754;SDS011;2902;42.130;24.732;2023-12-07T03:00:46;11.10;;;9.67;;
5754;SDS011;2902;42.130;24.732;2023-12-07T03:03:15;11.20;;;9.87;;
5754;SDS011;2902;42.130;24.732;2023-12-07T03:05:41;13.90;;;9.33;;
5754;SDS011;2902;42.130;24.732;2023-12-07T03:08:08;10.80;;;9.63;;
5754;SDS011;2902;42.130;24.732;2023-12-07T03:10:35;13.73;;;9.63;;
5754;SDS011;2902;42.130;24.732;2023-12-07T03:13:01;13.37;;;10.30;;
5754;SDS011;2902;42.130;24.732;2023-12-07T03:15:28;12.47;;;10.93;;
5754;SDS011;2902;42.130;24.732;2023-12-07T03:17:55;12.33;;;11.07;;
5754;SDS011;2902;42.130;24.732;2023-12-07T03:20:23;17.80;;;13.00;;
5754;SDS011;2902;42.130;24.732;2023-12-07T03:22:50;18.87;;;13.60;;
5754;SDS011;2902;42.130;24.732;2023-12-07T03:25:16;13.80;;;12.33;;
5754;SDS011;2902;42.130;24.732;2023-12-07T03:27:43;16.27;;;13.07;;
5754;SDS011;2902;42.130;24.732;2023-12-07T03:30:10;17.67;;;14.30;;
5754;SDS011;2902;42.130;24.732;2023-12-07T03:32:38;21.50;;;16.27;;
5754;SDS011;2902;42.130;24.732;2023-12-07T03:35:05;22.93;;;15.40;;
5754;SDS011;2902;42.130;24.732;2023-12-07T03:37:33;20.57;;;14.90;;
5754;SDS011;2902;42.130;24.732;2023-12-07T03:40:00;21.77;;;15.10;;
5754;SDS011;2902;42.130;24.732;2023-12-07T03:42:29;22.43;;;16.57;;
5754;SDS011;2902;42.130;24.732;2023-12-07T03:44:56;25.37;;;16.53;;
5754;SDS011;2902;42.130;24.732;2023-12-07T03:47:23;27.00;;;17.57;;
5754;SDS011;2902;42.130;24.732;2023-12-07T03:49:50;36.80;;;23.77;;
5754;SDS011;2902;42.130;24.732;2023-12-07T03:52:16;24.73;;;17.87;;
5754;SDS011;2902;42.130;24.732;2023-12-07T03:54:44;23.33;;;16.37;;
5754;SDS011;2902;42.130;24.732;2023-12-07T03:57:11;27.37;;;18.17;;
5754;SDS011;2902;42.130;24.732;2023-12-07T03:59:38;26.53;;;18.23;;
5754;SDS011;2902;42.130;24.732;2023-12-07T04:02:04;32.07;;;19.33;;
5754;SDS011;2902;42.130;24.732;2023-12-07T04:04:31;27.50;;;18.13;;
5754;SDS011;2902;42.130;24.732;2023-12-07T04:06:58;28.33;;;17.77;;
5754;SDS011;2902;42.130;24.732;2023-12-07T04:09:24;23.60;;;15.77;;
5754;SDS011;2902;42.130;24.732;2023-12-07T04:11:53;25.93;;;17.33;;
5754;SDS011;2902;42.130;24.732;2023-12-07T04:14:19;27.03;;;16.83;;
5754;SDS011;2902;42.130;24.732;2023-12-07T04:16:46;26.60;;;17.70;;
5754;SDS011;2902;42.130;24.732;2023-12-07T04:19:13;29.30;;;18.23;;
5754;SDS011;2902;42.130;24.732;2023-12-07T04:21:40;24.87;;;18.37;;
5754;SDS011;2902;42.130;24.732;2023-12-07T04:24:07;26.00;;;17.20;;
5754;SDS011;2902;42.130;24.732;2023-12-07T04:26:33;30.67;;;18.13;;
5754;SDS011;2902;42.130;24.732;2023-12-07T04:29:01;26.50;;;17.83;;
5754;SDS011;2902;42.130;24.732;2023-12-07T04:31:28;28.00;;;18.43;;
5754;SDS011;2902;42.130;24.732;2023-12-07T04:33:55;29.83;;;18.57;;
5754;SDS011;2902;42.130;24.732;2023-12-07T04:36:21;25.50;;;18.10;;
5754;SDS011;2902;42.130;24.732;2023-12-07T04:38:48;26.33;;;17.13;;
5754;SDS011;2902;42.130;24.732;2023-12-07T04:41:16;27.93;;;19.10;;
5754;SDS011;2902;42.130;24.732;2023-12-07T04:43:43;32.63;;;19.57;;
5754;SDS011;2902;42.130;24.732;2023-12-07T04:46:11;30.03;;;20.00;;
5754;SDS011;2902;42.130;24.732;2023-12-07T04:48:38;30.73;;;19.00;;
5754;SDS011;2902;42.130;24.732;2023-12-07T04:51:05;31.23;;;19.37;;
5754;SDS011;2902;42.130;24.732;2023-12-07T04:53:32;33.17;;;18.40;;
5754;SDS011;2902;42.130;24.732;2023-12-07T04:55:59;32.17;;;18.67;;
5754;SDS011;2902;42.130;24.732;2023-12-07T04:58:26;31.83;;;18.87;;
5754;SDS011;2902;42.130;24.732;2023-12-07T05:00:52;33.73;;;20.43;;
5754;SDS011;2902;42.130;24.732;2023-12-07T05:03:21;34.17;;;20.57;;
5754;SDS011;2902;42.130;24.732;2023-12-07T05:05:48;35.63;;;20.97;;
5754;SDS011;2902;42.130;24.732;2023-12-07T05:08:15;32.50;;;21.73;;
5754;SDS011;2902;42.130;24.732;2023-12-07T05:10:43;30.43;;;20.70;;
5754;SDS011;2902;42.130;24.732;2023-12-07T05:13:09;34.33;;;21.17;;
5754;SDS011;2902;42.130;24.732;2023-12-07T05:15:37;35.83;;;21.30;;
5754;SDS011;2902;42.130;24.732;2023-12-07T05:18:04;33.77;;;20.17;;
5754;SDS011;2902;42.130;24.732;2023-12-07T05:20:32;31.30;;;21.00;;
5754;SDS011;2902;42.130;24.732;2023-12-07T05:22:59;31.63;;;21.90;;
5754;SDS011;2902;42.130;24.732;2023-12-07T05:25:26;50.53;;;29.77;;
5754;SDS011;2902;42.130;24.732;2023-12-07T05:27:52;39.90;;;25.37;;
5754;SDS011;2902;42.130;24.732;2023-12-07T05:30:19;37.97;;;23.70;;
5754;SDS011;2902;42.130;24.732;2023-12-07T05:32:46;44.70;;;29.37;;
5754;SDS011;2902;42.130;24.732;2023-12-07T05:35:13;47.70;;;29.50;;
5754;SDS011;2902;42.130;24.732;2023-12-07T05:37:41;43.67;;;25.70;;
5754;SDS011;2902;42.130;24.732;2023-12-07T05:40:08;40.27;;;25.33;;
5754;SDS011;2902;42.130;24.732;2023-12-07T05:42:37;38.93;;;25.47;;
5754;SDS011;2902;42.130;24.732;2023-12-07T05:45:04;39.87;;;24.23;;
5754;SDS011;2902;42.130;24.732;2023-12-07T05:47:31;39.73;;;24.87;;
5754;SDS011;2902;42.130;24.732;2023-12-07T05:49:58;48.70;;;29.33;;
5754;SDS011;2902;42.130;24.732;2023-12-07T05:52:25;42.37;;;26.27;;
5754;SDS011;2902;42.130;24.732;2023-12-07T05:54:53;45.53;;;28.40;;
5754;SDS011;2902;42.130;24.732;2023-12-07T05:57:20;50.23;;;29.30;;
5754;SDS011;2902;42.130;24.732;2023-12-07T05:59:46;47.37;;;27.17;;
5754;SDS011;2902;42.130;24.732;2023-12-07T06:02:13;41.23;;;27.10;;
5754;SDS011;2902;42.130;24.732;2023-12-07T06:04:40;50.63;;;29.93;;
5754;SDS011;2902;42.130;24.732;2023-12-07T06:07:07;44.17;;;29.80;;
5754;SDS011;2902;42.130;24.732;2023-12-07T06:09:33;47.80;;;33.10;;
5754;SDS011;2902;42.130;24.732;2023-12-07T06:12:01;58.93;;;35.70;;
5754;SDS011;2902;42.130;24.732;2023-12-07T06:14:29;49.57;;;31.60;;
5754;SDS011;2902;42.130;24.732;2023-12-07T06:16:57;54.73;;;33.63;;
5754;SDS011;2902;42.130;24.732;2023-12-07T06:19:24;59.73;;;32.07;;
5754;SDS011;2902;42.130;24.732;2023-12-07T06:21:51;50.83;;;31.80;;
5754;SDS011;2902;42.130;24.732;2023-12-07T06:24:18;53.27;;;34.10;;
5754;SDS011;2902;42.130;24.732;2023-12-07T06:26:48;59.77;;;35.20;;
5754;SDS011;2902;42.130;24.732;2023-12-07T06:29:16;54.67;;;33.07;;
5754;SDS011;2902;42.130;24.732;2023-12-07T06:31:43;51.97;;;33.70;;
5754;SDS011;2902;42.130;24.732;2023-12-07T06:34:10;58.57;;;36.03;;
5754;SDS011;2902;42.130;24.732;2023-12-07T06:36:37;63.40;;;37.27;;
5754;SDS011;2902;42.130;24.732;2023-12-07T06:39:04;54.57;;;36.77;;
5754;SDS011;2902;42.130;24.732;2023-12-07T06:41:31;62.67;;;36.13;;
5754;SDS011;2902;42.130;24.732;2023-12-07T06:43:58;61.17;;;37.13;;
5754;SDS011;2902;42.130;24.732;2023-12-07T06:46:26;58.33;;;35.70;;
5754;SDS011;2902;42.130;24.732;2023-12-07T06:48:53;64.30;;;37.80;;
5754;SDS011;2902;42.130;24.732;2023-12-07T06:51:20;72.87;;;40.03;;
5754;SDS011;2902;42.130;24.732;2023-12-07T06:53:47;85.57;;;54.67;;
5754;SDS011;2902;42.130;24.732;2023-12-07T06:56:14;99.40;;;58.80;;
5754;SDS011;2902;42.130;24.732;2023-12-07T06:58:41;74.00;;;45.37;;
5754;SDS011;2902;42.130;24.732;2023-12-07T07:01:07;88.30;;;51.23;;
5754;SDS011;2902;42.130;24.732;2023-12-07T07:03:35;78.37;;;44.90;;
5754;SDS011;2902;42.130;24.732;2023-12-07T07:06:02;72.10;;;43.30;;
5754;SDS011;2902;42.130;24.732;2023-12-07T07:08:30;72.30;;;45.37;;
5754;SDS011;2902;42.130;24.732;2023-12-07T07:10:56;58.03;;;36.53;;
5754;SDS011;2902;42.130;24.732;2023-12-07T07:13:23;56.07;;;33.87;;
5754;SDS011;2902;42.130;24.732;2023-12-07T07:15:50;44.50;;;30.83;;
5754;SDS011;2902;42.130;24.732;2023-12-07T07:18:16;48.67;;;30.40;;
5754;SDS011;2902;42.130;24.732;2023-12-07T07:20:45;45.60;;;28.37;;
5754;SDS011;2902;42.130;24.732;2023-12-07T07:23:12;42.87;;;28.57;;
5754;SDS011;2902;42.130;24.732;2023-12-07T07:25:38;35.30;;;22.80;;
5754;SDS011;2902;42.130;24.732;2023-12-07T07:28:05;37.50;;;23.33;;
5754;SDS011;2902;42.130;24.732;2023-12-07T07:30:32;36.07;;;21.67;;
5754;SDS011;2902;42.130;24.732;2023-12-07T07:32:59;33.17;;;22.03;;
5754;SDS011;2902;42.130;24.732;2023-12-07T07:35:26;29.13;;;22.03;;
5754;SDS011;2902;42.130;24.732;2023-12-07T07:37:55;29.03;;;20.80;;
5754;SDS011;2902;42.130;24.732;2023-12-07T07:40:22;29.67;;;20.20;;
5754;SDS011;2902;42.130;24.732;2023-12-07T07:42:49;29.10;;;20.63;;
5754;SDS011;2902;42.130;24.732;2023-12-07T07:45:16;28.33;;;19.47;;
5754;SDS011;2902;42.130;24.732;2023-12-07T07:47:44;30.63;;;20.13;;
5754;SDS011;2902;42.130;24.732;2023-12-07T07:50:10;34.30;;;20.57;;
5754;SDS011;2902;42.130;24.732;2023-12-07T07:52:37;27.57;;;20.37;;
5754;SDS011;2902;42.130;24.732;2023-12-07T07:55:07;28.20;;;20.27;;
5754;SDS011;2902;42.130;24.732;2023-12-07T07:57:34;28.33;;;19.73;;
5754;SDS011;2902;42.130;24.732;2023-12-07T08:00:01;28.40;;;19.80;;
5754;SDS011;2902;42.130;24.732;2023-12-07T08:02:30;27.13;;;19.83;;
5754;SDS011;2902;42.130;24.732;2023-12-07T08:04:56;27.07;;;18.23;;
5754;SDS011;2902;42.130;24.732;2023-12-07T08:07:23;24.60;;;19.30;;
5754;SDS011;2902;42.130;24.732;2023-12-07T08:09:50;22.33;;;18.07;;
5754;SDS011;2902;42.130;24.732;2023-12-07T08:12:18;27.70;;;19.07;;
5754;SDS011;2902;42.130;24.732;2023-12-07T08:14:44;29.17;;;20.43;;
5754;SDS011;2902;42.130;24.732;2023-12-07T08:17:13;27.13;;;20.20;;
5754;SDS011;2902;42.130;24.732;2023-12-07T08:19:41;29.83;;;21.10;;
5754;SDS011;2902;42.130;24.732;2023-12-07T08:22:08;30.10;;;21.03;;
5754;SDS011;2902;42.130;24.732;2023-12-07T08:24:35;26.90;;;20.67;;
5754;SDS011;2902;42.130;24.732;2023-12-07T08:27:02;27.30;;;21.40;;
5754;SDS011;2902;42.130;24.732;2023-12-07T08:29:31;29.47;;;22.70;;
5754;SDS011;2902;42.130;24.732;2023-12-07T08:31:58;29.40;;;22.10;;
5754;SDS011;2902;42.130;24.732;2023-12-07T08:34:25;35.90;;;23.00;;
5754;SDS011;2902;42.130;24.732;2023-12-07T08:36:51;33.03;;;24.53;;
5754;SDS011;2902;42.130;24.732;2023-12-07T08:39:18;32.97;;;23.83;;
5754;SDS011;2902;42.130;24.732;2023-12-07T08:41:45;35.17;;;25.93;;
5754;SDS011;2902;42.130;24.732;2023-12-07T08:44:11;38.97;;;26.77;;
5754;SDS011;2902;42.130;24.732;2023-12-07T08:46:40;37.20;;;24.93;;
5754;SDS011;2902;42.130;24.732;2023-12-07T08:49:08;45.30;;;27.07;;
5754;SDS011;2902;42.130;24.732;2023-12-07T08:51:35;35.83;;;26.20;;
5754;SDS011;2902;42.130;24.732;2023-12-07T08:54:02;40.30;;;28.93;;
5754;SDS011;2902;42.130;24.732;2023-12-07T08:56:30;44.80;;;33.30;;
5754;SDS011;2902;42.130;24.732;2023-12-07T08:58:57;36.17;;;26.77;;
5754;SDS011;2902;42.130;24.732;2023-12-07T09:01:24;29.03;;;21.10;;
5754;SDS011;2902;42.130;24.732;2023-12-07T09:03:53;29.00;;;22.37;;
5754;SDS011;2902;42.130;24.732;2023-12-07T09:06:19;28.20;;;21.03;;
5754;SDS011;2902;42.130;24.732;2023-12-07T09:08:46;36.57;;;22.23;;
5754;SDS011;2902;42.130;24.732;2023-12-07T09:11:13;32.20;;;21.97;;
5754;SDS011;2902;42.130;24.732;2023-12-07T09:13:39;42.77;;;21.43;;
5754;SDS011;2902;42.130;24.732;2023-12-07T09:16:06;26.07;;;17.60;;
5754;SDS011;2902;42.130;24.732;2023-12-07T09:18:33;22.77;;;17.10;;
5754;SDS011;2902;42.130;24.732;2023-12-07T09:21:02;26.17;;;16.47;;
5754;SDS011;2902;42.130;24.732;2023-12-07T09:23:29;25.70;;;16.83;;
5754;SDS011;2902;42.130;24.732;2023-12-07T09:25:56;22.50;;;16.63;;
5754;SDS011;2902;42.130;24.732;2023-12-07T09:28:22;20.90;;;16.47;;
5754;SDS011;2902;42.130;24.732;2023-12-07T09:30:49;24.23;;;18.23;;
5754;SDS011;2902;42.130;24.732;2023-12-07T09:33:16;23.53;;;17.37;;
5754;SDS011;2902;42.130;24.732;2023-12-07T09:35:44;13.13;;;10.50;;
5754;SDS011;2902;42.130;24.732;2023-12-07T09:38:12;21.23;;;15.80;;
5754;SDS011;2902;42.130;24.732;2023-12-07T09:40:39;19.97;;;16.63;;
5754;SDS011;2902;42.130;24.732;2023-12-07T09:43:05;25.63;;;19.30;;
5754;SDS011;2902;42.130;24.732;2023-12-07T09:45:32;29.20;;;20.13;;
5754;SDS011;2902;42.130;24.732;2023-12-07T09:47:59;21.70;;;17.20;;
5754;SDS011;2902;42.130;24.732;2023-12-07T09:50:27;21.90;;;16.23;;
5754;SDS011;2902;42.130;24.732;2023-12-07T09:52:54;24.37;;;15.03;;
5754;SDS011;2902;42.130;24.732;2023-12-07T09:55:24;18.37;;;15.67;;
5754;SDS011;2902;42.130;24.732;2023-12-07T09:57:50;19.67;;;14.37;;
5754;SDS011;2902;42.130;24.732;2023-12-07T10:00:19;17.87;;;14.80;;
5754;SDS011;2902;42.130;24.732;2023-12-07T10:02:46;19.07;;;14.00;;
5754;SDS011;2902;42.130;24.732;2023-12-07T10:05:13;19.77;;;13.17;;
5754;SDS011;2902;42.130;24.732;2023-12-07T10:07:42;14.83;;;13.33;;
5754;SDS011;2902;42.130;24.732;2023-12-07T10:10:09;19.20;;;13.43;;
5754;SDS011;2902;42.130;24.732;2023-12-07T10:12:45;16.53;;;12.77;;
5754;SDS011;2902;42.130;24.732;2023-12-07T10:15:13;14.67;;;12.43;;
5754;SDS011;2902;42.130;24.732;2023-12-07T10:17:48;15.87;;;11.97;;
5754;SDS011;2902;42.130;24.732;2023-12-07T10:20:16;15.33;;;13.47;;
5754;SDS011;2902;42.130;24.732;2023-12-07T10:22:43;21.73;;;12.93;;
5754;SDS011;2902;42.130;24.732;2023-12-07T10:25:11;18.50;;;13.17;;
5754;SDS011;2902;42.130;24.732;2023-12-07T10:27:40;15.87;;;13.30;;
5754;SDS011;2902;42.130;24.732;2023-12-07T10:30:10;16.47;;;13.40;;
5754;SDS011;2902;42.130;24.732;2023-12-07T10:32:38;19.87;;;14.50;;
5754;SDS011;2902;42.130;24.732;2023-12-07T10:35:06;15.40;;;11.67;;
5754;SDS011;2902;42.130;24.732;2023-12-07T10:37:34;17.90;;;12.30;;
5754;SDS011;2902;42.130;24.732;2023-12-07T10:40:01;19.00;;;12.40;;
5754;SDS011;2902;42.130;24.732;2023-12-07T10:42:32;16.90;;;12.93;;
5754;SDS011;2902;42.130;24.732;2023-12-07T10:45:02;14.53;;;12.93;;
5754;SDS011;2902;42.130;24.732;2023-12-07T10:47:33;16.87;;;12.90;;
5754;SDS011;2902;42.130;24.732;2023-12-07T10:50:03;13.17;;;11.77;;
5754;SDS011;2902;42.130;24.732;2023-12-07T10:52:36;14.40;;;11.50;;
5754;SDS011;2902;42.130;24.732;2023-12-07T10:55:03;12.10;;;10.83;;
5754;SDS011;2902;42.130;24.732;2023-12-07T10:57:34;14.80;;;11.10;;
5754;SDS011;2902;42.130;24.732;2023-12-07T11:00:02;13.37;;;11.87;;
5754;SDS011;2902;42.130;24.732;2023-12-07T11:02:30;13.80;;;12.23;;
5754;SDS011;2902;42.130;24.732;2023-12-07T11:05:00;17.67;;;11.57;;
5754;SDS011;2902;42.130;24.732;2023-12-07T11:07:30;12.30;;;11.10;;
5754;SDS011;2902;42.130;24.732;2023-12-07T11:10:07;13.00;;;11.70;;
5754;SDS011;2902;42.130;24.732;2023-12-07T11:12:43;11.33;;;10.23;;
5754;SDS011;2902;42.130;24.732;2023-12-07T11:15:14;10.80;;;9.80;;
5754;SDS011;2902;42.130;24.732;2023-12-07T11:17:54;11.53;;;10.37;;
5754;SDS011;2902;42.130;24.732;2023-12-07T11:20:22;13.87;;;12.33;;
5754;SDS011;2902;42.130;24.732;2023-12-07T11:22:59;13.40;;;11.47;;
5754;SDS011;2902;42.130;24.732;2023-12-07T11:25:25;14.13;;;11.13;;
5754;SDS011;2902;42.130;24.732;2023-12-07T11:27:59;12.10;;;10.27;;
5754;SDS011;2902;42.130;24.732;2023-12-07T11:30:26;12.30;;;10.53;;
5754;SDS011;2902;42.130;24.732;2023-12-07T11:32:55;13.57;;;10.50;;
5754;SDS011;2902;42.130;24.732;2023-12-07T11:35:22;12.93;;;10.40;;
5754;SDS011;2902;42.130;24.732;2023-12-07T11:40:36;11.20;;;10.10;;
5754;SDS011;2902;42.130;24.732;2023-12-07T11:43:06;17.83;;;11.20;;
5754;SDS011;2902;42.130;24.732;2023-12-07T11:45:39;15.53;;;10.87;;
5754;SDS011;2902;42.130;24.732;2023-12-07T11:48:13;18.03;;;10.87;;
5754;SDS011;2902;42.130;24.732;2023-12-07T11:50:56;11.43;;;9.40;;
5754;SDS011;2902;42.130;24.732;2023-12-07T11:53:24;12.27;;;9.23;;
5754;SDS011;2902;42.130;24.732;2023-12-07T11:55:51;14.10;;;9.97;;
5754;SDS011;2902;42.130;24.732;2023-12-07T11:58:19;13.67;;;10.83;;
5754;SDS011;2902;42.130;24.732;2023-12-07T12:00:46;17.20;;;11.43;;
5754;SDS011;2902;42.130;24.732;2023-12-07T12:03:14;16.37;;;10.30;;
5754;SDS011;2902;42.130;24.732;2023-12-07T12:05:41;14.40;;;8.77;;
5754;SDS011;2902;42.130;24.732;2023-12-07T12:08:09;9.97;;;9.00;;
5754;SDS011;2902;42.130;24.732;2023-12-07T12:10:36;12.90;;;9.17;;
5754;SDS011;2902;42.130;24.732;2023-12-07T12:13:03;12.33;;;9.70;;
5754;SDS011;2902;42.130;24.732;2023-12-07T12:15:30;9.70;;;8.80;;
5754;SDS011;2902;42.130;24.732;2023-12-07T12:17:58;12.57;;;9.97;;
5754;SDS011;2902;42.130;24.732;2023-12-07T12:20:27;13.93;;;9.87;;
5754;SDS011;2902;42.130;24.732;2023-12-07T12:22:54;10.93;;;9.83;;
5754;SDS011;2902;42.130;24.732;2023-12-07T12:25:21;12.93;;;10.20;;
5754;SDS011;2902;42.130;24.732;2023-12-07T12:27:51;12.00;;;10.33;;
5754;SDS011;2902;42.130;24.732;2023-12-07T12:30:20;14.63;;;11.00;;
5754;SDS011;2902;42.130;24.732;2023-12-07T12:32:48;13.60;;;10.97;;
5754;SDS011;2902;42.130;24.732;2023-12-07T12:35:15;12.13;;;10.23;;
5754;SDS011;2902;42.130;24.732;2023-12-07T12:37:44;16.27;;;11.17;;
5754;SDS011;2902;42.130;24.732;2023-12-07T12:40:16;14.53;;;11.10;;
5754;SDS011;2902;42.130;24.732;2023-12-07T12:42:44;14.00;;;11.43;;
5754;SDS011;2902;42.130;24.732;2023-12-07T12:45:13;11.20;;;9.63;;
5754;SDS011;2902;42.130;24.732;2023-12-07T12:47:41;10.87;;;9.83;;
5754;SDS011;2902;42.130;24.732;2023-12-07T12:50:10;10.20;;;9.30;;
5754;SDS011;2902;42.130;24.732;2023-12-07T12:52:37;19.40;;;10.90;;
5754;SDS011;2902;42.130;24.732;2023-12-07T12:55:10;19.27;;;10.77;;
5754;SDS011;2902;42.130;24.732;2023-12-07T12:57:37;12.83;;;10.50;;
5754;SDS011;2902;42.130;24.732;2023-12-07T13:00:04;14.33;;;11.33;;
5754;SDS011;2902;42.130;24.732;2023-12-07T13:02:33;13.60;;;10.00;;
5754;SDS011;2902;42.130;24.732;2023-12-07T13:05:00;11.57;;;9.80;;
5754;SDS011;2902;42.130;24.732;2023-12-07T13:07:27;10.10;;;9.03;;
5754;SDS011;2902;42.130;24.732;2023-12-07T13:09:54;11.40;;;9.40;;
5754;SDS011;2902;42.130;24.732;2023-12-07T13:12:22;14.97;;;10.40;;
5754;SDS011;2902;42.130;24.732;2023-12-07T13:14:52;16.90;;;11.60;;
5754;SDS011;2902;42.130;24.732;2023-12-07T13:17:19;20.10;;;14.43;;
5754;SDS011;2902;42.130;24.732;2023-12-07T13:19:46;22.87;;;18.57;;
5754;SDS011;2902;42.130;24.732;2023-12-07T13:22:13;24.97;;;18.47;;
5754;SDS011;2902;42.130;24.732;2023-12-07T13:24:40;29.10;;;20.67;;
5754;SDS011;2902;42.130;24.732;2023-12-07T13:27:06;33.00;;;25.17;;
5754;SDS011;2902;42.130;24.732;2023-12-07T13:29:34;37.40;;;24.30;;
5754;SDS011;2902;42.130;24.732;2023-12-07T13:32:01;31.97;;;22.40;;
5754;SDS011;2902;42.130;24.732;2023-12-07T13:34:28;31.77;;;23.73;;
5754;SDS011;2902;42.130;24.732;2023-12-07T13:36:55;25.37;;;19.33;;
5754;SDS011;2902;42.130;24.732;2023-12-07T13:39:22;27.60;;;21.30;;
5754;SDS011;2902;42.130;24.732;2023-12-07T13:41:48;27.40;;;20.27;;
5754;SDS011;2902;42.130;24.732;2023-12-07T13:44:17;27.00;;;19.27;;
5754;SDS011;2902;42.130;24.732;2023-12-07T13:46:45;22.23;;;16.27;;
5754;SDS011;2902;42.130;24.732;2023-12-07T13:49:11;26.50;;;18.30;;
5754;SDS011;2902;42.130;24.732;2023-12-07T13:51:39;29.33;;;17.60;;
5754;SDS011;2902;42.130;24.732;2023-12-07T13:54:06;23.77;;;18.80;;
5754;SDS011;2902;42.130;24.732;2023-12-07T13:56:33;25.73;;;19.17;;
5754;SDS011;2902;42.130;24.732;2023-12-07T13:59:00;25.93;;;19.03;;
5754;SDS011;2902;42.130;24.732;2023-12-07T14:01:27;23.87;;;20.03;;
5754;SDS011;2902;42.130;24.732;2023-12-07T14:03:58;25.90;;;19.30;;
5754;SDS011;2902;42.130;24.732;2023-12-07T14:06:27;30.73;;;21.60;;
5754;SDS011;2902;42.130;24.732;2023-12-07T14:08:53;30.23;;;21.33;;
5754;SDS011;2902;42.130;24.732;2023-12-07T14:11:20;30.67;;;21.03;;
5754;SDS011;2902;42.130;24.732;2023-12-07T14:13:47;27.97;;;20.30;;
5754;SDS011;2902;42.130;24.732;2023-12-07T14:16:13;33.73;;;19.17;;
5754;SDS011;2902;42.130;24.732;2023-12-07T14:18:40;28.80;;;18.67;;
5754;SDS011;2902;42.130;24.732;2023-12-07T14:21:09;27.70;;;19.80;;
5754;SDS011;2902;42.130;24.732;2023-12-07T14:23:36;27.33;;;19.20;;
5754;SDS011;2902;42.130;24.732;2023-12-07T14:26:03;39.47;;;21.67;;
5754;SDS011;2902;42.130;24.732;2023-12-07T14:28:30;33.07;;;21.80;;
5754;SDS011;2902;42.130;24.732;2023-12-07T14:30:59;27.33;;;18.80;;
5754;SDS011;2902;42.130;24.732;2023-12-07T14:33:26;25.40;;;18.63;;
5754;SDS011;2902;42.130;24.732;2023-12-07T14:35:52;25.97;;;16.23;;
5754;SDS011;2902;42.130;24.732;2023-12-07T14:38:20;19.87;;;13.77;;
5754;SDS011;2902;42.130;24.732;2023-12-07T14:40:49;18.90;;;13.33;;
5754;SDS011;2902;42.130;24.732;2023-12-07T14:43:16;25.03;;;13.43;;